sensor_id;sensor_type;location;lat;lon;timestamp;temperature;humidity
6662;DHT22;3367;48.714;8.994;2023-03-05T00:02:07;2.20;99.90
6662;DHT22;3367;48.714;8.994;2023-03-05T00:04:34;2.20;99.90
6662;DHT22;3367;48.714;8.994;2023-03-05T00:07:01;2.20;99.90
6662;DHT22;3367;48.714;8.994;2023-03-05T00:09:28;2.20;99.90
6662;DHT22;3367;48.714;8.994;2023-03-05T00:11:54;2.10;99.90
6662;DHT22;3367;48.714;8.994;2023-03-05T00:14:21;2.10;99.90
6662;DHT22;3367;48.714;8.994;2023-03-05T00:16:49;2.10;99.90
6662;DHT22;3367;48.714;8.994;2023-03-05T00:19:16;2.10;99.90
6662;DHT22;3367;48.714;8.994;2023-03-05T00:21:43;2.10;99.90
6662;DHT22;3367;48.714;8.994;2023-03-05T00:24:12;2.10;99.90
6662;DHT22;3367;48.714;8.994;2023-03-05T00:26:39;2.10;99.90
6662;DHT22;3367;48.714;8.994;2023-03-05T00:29:07;2.20;1.00
6662;DHT22;3367;48.714;8.994;2023-03-05T00:31:35;2.10;1.00
6662;DHT22;3367;48.714;8.994;2023-03-05T00:34:05;2.20;1.00
6662;DHT22;3367;48.714;8.994;2023-03-05T00:36:33;2.20;1.00
6662;DHT22;3367;48.714;8.994;2023-03-05T00:39:00;2.20;1.00
6662;DHT22;3367;48.714;8.994;2023-03-05T00:41:27;2.20;1.00
6662;DHT22;3367;48.714;8.994;2023-03-05T00:43:53;2.20;1.00
6662;DHT22;3367;48.714;8.994;2023-03-05T00:46:20;2.20;1.00
6662;DHT22;3367;48.714;8.994;2023-03-05T00:48:47;2.20;1.00
6662;DHT22;3367;48.714;8.994;2023-03-05T00:51:15;2.10;1.00
6662;DHT22;3367;48.714;8.994;2023-03-05T00:53:42;2.20;1.00
6662;DHT22;3367;48.714;8.994;2023-03-05T00:56:09;2.20;1.00
6662;DHT22;3367;48.714;8.994;2023-03-05T00:58:36;2.20;1.00
6662;DHT22;3367;48.714;8.994;2023-03-05T01:01:04;2.20;1.00
6662;DHT22;3367;48.714;8.994;2023-03-05T01:03:32;2.20;1.00
6662;DHT22;3367;48.714;8.994;2023-03-05T01:06:00;2.20;1.00
6662;DHT22;3367;48.714;8.994;2023-03-05T01:08:28;2.20;1.00
6662;DHT22;3367;48.714;8.994;2023-03-05T01:10:55;2.20;1.00
6662;DHT22;3367;48.714;8.994;2023-03-05T01:13:22;2.20;1.00
6662;DHT22;3367;48.714;8.994;2023-03-05T01:15:48;2.30;1.00
6662;DHT22;3367;48.714;8.994;2023-03-05T01:18:16;2.20;1.00
6662;DHT22;3367;48.714;8.994;2023-03-05T01:20:43;2.20;1.00
6662;DHT22;3367;48.714;8.994;2023-03-05T01:23:10;2.30;1.00
6662;DHT22;3367;48.714;8.994;2023-03-05T01:25:39;2.30;1.00
6662;DHT22;3367;48.714;8.994;2023-03-05T01:28:06;2.20;1.00
6662;DHT22;3367;48.714;8.994;2023-03-05T01:30:33;2.20;1.00
6662;DHT22;3367;48.714;8.994;2023-03-05T01:33:00;2.20;1.00
6662;DHT22;3367;48.714;8.994;2023-03-05T01:35:28;2.20;1.00
6662;DHT22;3367;48.714;8.994;2023-03-05T01:37:55;2.20;1.00
6662;DHT22;3367;48.714;8.994;2023-03-05T01:40:24;2.20;1.00
6662;DHT22;3367;48.714;8.994;2023-03-05T01:42:58;2.20;1.00
6662;DHT22;3367;48.714;8.994;2023-03-05T01:45:28;2.20;1.00
6662;DHT22;3367;48.714;8.994;2023-03-05T01:47:56;2.10;1.00
6662;DHT22;3367;48.714;8.994;2023-03-05T01:50:23;2.10;1.00
6662;DHT22;3367;48.714;8.994;2023-03-05T01:52:55;2.10;1.00
6662;DHT22;3367;48.714;8.994;2023-03-05T01:55:25;2.10;1.00
6662;DHT22;3367;48.714;8.994;2023-03-05T01:57:56;2.10;1.00
6662;DHT22;3367;48.714;8.994;2023-03-05T02:00:28;2.10;1.00
6662;DHT22;3367;48.714;8.994;2023-03-05T02:02:56;2.10;1.00
6662;DHT22;3367;48.714;8.994;2023-03-05T02:05:29;2.10;1.00
6662;DHT22;3367;48.714;8.994;2023-03-05T02:07:57;2.10;1.00
6662;DHT22;3367;48.714;8.994;2023-03-05T02:10:27;2.10;1.00
6662;DHT22;3367;48.714;8.994;2023-03-05T02:12:57;2.20;1.00
6662;DHT22;3367;48.714;8.994;2023-03-05T02:15:26;2.20;1.00
6662;DHT22;3367;48.714;8.994;2023-03-05T02:17:54;2.20;1.00
6662;DHT22;3367;48.714;8.994;2023-03-05T02:20:22;2.20;1.00
6662;DHT22;3367;48.714;8.994;2023-03-05T02:22:51;2.20;1.00
6662;DHT22;3367;48.714;8.994;2023-03-05T02:25:21;2.20;1.00
6662;DHT22;3367;48.714;8.994;2023-03-05T02:27:53;2.20;1.00
6662;DHT22;3367;48.714;8.994;2023-03-05T02:30:21;2.20;1.00
6662;DHT22;3367;48.714;8.994;2023-03-05T02:32:48;2.30;1.00
6662;DHT22;3367;48.714;8.994;2023-03-05T02:38:38;2.20;1.00
6662;DHT22;3367;48.714;8.994;2023-03-05T02:41:05;2.20;1.00
6662;DHT22;3367;48.714;8.994;2023-03-05T02:43:32;2.20;1.00
6662;DHT22;3367;48.714;8.994;2023-03-05T02:45:59;2.20;1.00
6662;DHT22;3367;48.714;8.994;2023-03-05T02:48:26;2.20;1.00
6662;DHT22;3367;48.714;8.994;2023-03-05T02:50:53;2.20;1.00
6662;DHT22;3367;48.714;8.994;2023-03-05T02:53:21;2.20;1.00
6662;DHT22;3367;48.714;8.994;2023-03-05T02:55:49;2.10;1.00
6662;DHT22;3367;48.714;8.994;2023-03-05T02:58:17;2.10;1.00
6662;DHT22;3367;48.714;8.994;2023-03-05T03:00:44;2.10;1.00
6662;DHT22;3367;48.714;8.994;2023-03-05T03:03:11;2.20;1.00
6662;DHT22;3367;48.714;8.994;2023-03-05T03:05:38;2.20;1.00
6662;DHT22;3367;48.714;8.994;2023-03-05T03:08:05;2.10;1.00
6662;DHT22;3367;48.714;8.994;2023-03-05T03:10:33;2.10;1.00
6662;DHT22;3367;48.714;8.994;2023-03-05T03:13:01;2.20;1.00
6662;DHT22;3367;48.714;8.994;2023-03-05T03:15:28;2.20;1.00
6662;DHT22;3367;48.714;8.994;2023-03-05T03:17:55;2.20;1.00
6662;DHT22;3367;48.714;8.994;2023-03-05T03:20:22;2.10;1.00
6662;DHT22;3367;48.714;8.994;2023-03-05T03:22:49;2.10;1.00
6662;DHT22;3367;48.714;8.994;2023-03-05T03:25:18;2.10;1.00
6662;DHT22;3367;48.714;8.994;2023-03-05T03:27:45;2.20;1.00
6662;DHT22;3367;48.714;8.994;2023-03-05T03:30:15;2.10;1.00
6662;DHT22;3367;48.714;8.994;2023-03-05T03:32:42;2.10;1.00
6662;DHT22;3367;48.714;8.994;2023-03-05T03:35:10;2.10;1.00
6662;DHT22;3367;48.714;8.994;2023-03-05T03:37:37;2.10;1.00
6662;DHT22;3367;48.714;8.994;2023-03-05T03:40:05;2.10;1.00
6662;DHT22;3367;48.714;8.994;2023-03-05T03:42:32;2.10;1.00
6662;DHT22;3367;48.714;8.994;2023-03-05T03:44:59;2.10;1.00
6662;DHT22;3367;48.714;8.994;2023-03-05T03:47:28;2.10;1.00
6662;DHT22;3367;48.714;8.994;2023-03-05T03:49:55;2.10;1.00
6662;DHT22;3367;48.714;8.994;2023-03-05T03:52:23;2.10;1.00
6662;DHT22;3367;48.714;8.994;2023-03-05T03:54:51;2.10;1.00
6662;DHT22;3367;48.714;8.994;2023-03-05T03:57:18;2.10;22.90
6662;DHT22;3367;48.714;8.994;2023-03-05T03:59:45;2.10;46.70
6662;DHT22;3367;48.714;8.994;2023-03-05T04:02:12;2.20;80.40
6662;DHT22;3367;48.714;8.994;2023-03-05T04:04:40;2.10;99.90
6662;DHT22;3367;48.714;8.994;2023-03-05T04:07:07;2.10;99.90
6662;DHT22;3367;48.714;8.994;2023-03-05T04:09:33;2.10;99.90
6662;DHT22;3367;48.714;8.994;2023-03-05T04:12:00;2.10;99.90
6662;DHT22;3367;48.714;8.994;2023-03-05T04:14:27;2.10;99.90
6662;DHT22;3367;48.714;8.994;2023-03-05T04:16:54;2.10;99.90
6662;DHT22;3367;48.714;8.994;2023-03-05T04:19:21;2.10;99.90
6662;DHT22;3367;48.714;8.994;2023-03-05T04:21:49;2.10;99.90
6662;DHT22;3367;48.714;8.994;2023-03-05T04:24:16;2.10;99.90
6662;DHT22;3367;48.714;8.994;2023-03-05T04:26:43;2.10;99.90
6662;DHT22;3367;48.714;8.994;2023-03-05T04:29:09;2.00;99.90
6662;DHT22;3367;48.714;8.994;2023-03-05T04:31:36;2.10;99.90
6662;DHT22;3367;48.714;8.994;2023-03-05T04:34:03;2.10;99.90
6662;DHT22;3367;48.714;8.994;2023-03-05T04:36:30;2.10;99.90
6662;DHT22;3367;48.714;8.994;2023-03-05T04:38:58;2.00;99.90
6662;DHT22;3367;48.714;8.994;2023-03-05T04:41:25;2.00;99.90
6662;DHT22;3367;48.714;8.994;2023-03-05T04:43:52;2.00;99.90
6662;DHT22;3367;48.714;8.994;2023-03-05T04:46:19;2.00;99.90
6662;DHT22;3367;48.714;8.994;2023-03-05T04:48:45;2.10;99.90
6662;DHT22;3367;48.714;8.994;2023-03-05T04:51:12;2.00;99.90
6662;DHT22;3367;48.714;8.994;2023-03-05T04:53:39;2.00;99.90
6662;DHT22;3367;48.714;8.994;2023-03-05T04:56:08;2.00;99.90
6662;DHT22;3367;48.714;8.994;2023-03-05T04:58:35;2.00;99.90
6662;DHT22;3367;48.714;8.994;2023-03-05T05:01:02;2.00;99.90
6662;DHT22;3367;48.714;8.994;2023-03-05T05:03:29;1.90;1.00
6662;DHT22;3367;48.714;8.994;2023-03-05T05:05:58;1.90;1.00
6662;DHT22;3367;48.714;8.994;2023-03-05T05:08:25;1.90;1.00
6662;DHT22;3367;48.714;8.994;2023-03-05T05:10:57;1.90;1.00
6662;DHT22;3367;48.714;8.994;2023-03-05T05:13:26;1.90;1.00
6662;DHT22;3367;48.714;8.994;2023-03-05T05:15:53;1.90;1.00
6662;DHT22;3367;48.714;8.994;2023-03-05T05:18:20;1.90;1.00
6662;DHT22;3367;48.714;8.994;2023-03-05T05:20:47;1.90;1.00
6662;DHT22;3367;48.714;8.994;2023-03-05T05:23:15;1.90;1.00
6662;DHT22;3367;48.714;8.994;2023-03-05T05:25:42;1.90;1.00
6662;DHT22;3367;48.714;8.994;2023-03-05T05:28:09;1.90;1.00
6662;DHT22;3367;48.714;8.994;2023-03-05T05:30:38;1.90;1.00
6662;DHT22;3367;48.714;8.994;2023-03-05T05:33:05;1.90;1.00
6662;DHT22;3367;48.714;8.994;2023-03-05T05:35:32;1.90;1.00
6662;DHT22;3367;48.714;8.994;2023-03-05T05:37:58;1.90;1.00
6662;DHT22;3367;48.714;8.994;2023-03-05T05:40:25;1.90;1.00
6662;DHT22;3367;48.714;8.994;2023-03-05T05:42:52;1.90;1.00
6662;DHT22;3367;48.714;8.994;2023-03-05T05:45:19;1.90;1.00
6662;DHT22;3367;48.714;8.994;2023-03-05T05:47:47;1.90;1.00
6662;DHT22;3367;48.714;8.994;2023-03-05T05:50:14;2.00;1.00
6662;DHT22;3367;48.714;8.994;2023-03-05T05:52:41;1.90;1.00
6662;DHT22;3367;48.714;8.994;2023-03-05T05:55:09;1.90;1.00
6662;DHT22;3367;48.714;8.994;2023-03-05T05:57:36;1.90;1.00
6662;DHT22;3367;48.714;8.994;2023-03-05T06:00:05;1.90;1.00
6662;DHT22;3367;48.714;8.994;2023-03-05T06:02:32;1.90;1.00
6662;DHT22;3367;48.714;8.994;2023-03-05T06:05:01;1.90;1.00
6662;DHT22;3367;48.714;8.994;2023-03-05T06:07:27;1.90;1.00
6662;DHT22;3367;48.714;8.994;2023-03-05T06:09:56;1.90;1.00
6662;DHT22;3367;48.714;8.994;2023-03-05T06:12:23;1.90;1.00
6662;DHT22;3367;48.714;8.994;2023-03-05T06:14:49;1.90;1.00
6662;DHT22;3367;48.714;8.994;2023-03-05T06:17:17;2.00;1.00
6662;DHT22;3367;48.714;8.994;2023-03-05T06:19:44;1.90;1.00
6662;DHT22;3367;48.714;8.994;2023-03-05T06:22:12;1.90;1.00
6662;DHT22;3367;48.714;8.994;2023-03-05T06:24:39;2.00;1.00
6662;DHT22;3367;48.714;8.994;2023-03-05T06:27:06;2.00;1.00
6662;DHT22;3367;48.714;8.994;2023-03-05T06:29:33;2.00;1.00
6662;DHT22;3367;48.714;8.994;2023-03-05T06:31:59;2.00;1.00
6662;DHT22;3367;48.714;8.994;2023-03-05T06:34:26;2.00;1.00
6662;DHT22;3367;48.714;8.994;2023-03-05T06:36:53;2.00;1.00
6662;DHT22;3367;48.714;8.994;2023-03-05T06:39:21;2.00;1.00
6662;DHT22;3367;48.714;8.994;2023-03-05T06:41:49;2.10;1.00
6662;DHT22;3367;48.714;8.994;2023-03-05T06:44:17;2.10;1.00
6662;DHT22;3367;48.714;8.994;2023-03-05T06:46:44;2.20;1.00
6662;DHT22;3367;48.714;8.994;2023-03-05T06:49:10;2.10;1.00
6662;DHT22;3367;48.714;8.994;2023-03-05T06:51:38;2.20;1.00
6662;DHT22;3367;48.714;8.994;2023-03-05T06:54:07;2.20;1.00
6662;DHT22;3367;48.714;8.994;2023-03-05T06:56:37;2.20;1.00
6662;DHT22;3367;48.714;8.994;2023-03-05T06:59:05;2.30;1.00
6662;DHT22;3367;48.714;8.994;2023-03-05T07:01:33;2.30;1.00
6662;DHT22;3367;48.714;8.994;2023-03-05T07:04:00;2.40;1.00
6662;DHT22;3367;48.714;8.994;2023-03-05T07:06:29;2.40;1.00
6662;DHT22;3367;48.714;8.994;2023-03-05T07:08:57;2.40;1.00
6662;DHT22;3367;48.714;8.994;2023-03-05T07:11:26;2.50;1.00
6662;DHT22;3367;48.714;8.994;2023-03-05T07:13:54;2.60;1.00
6662;DHT22;3367;48.714;8.994;2023-03-05T07:16:22;2.60;1.00
6662;DHT22;3367;48.714;8.994;2023-03-05T07:18:50;2.50;1.00
6662;DHT22;3367;48.714;8.994;2023-03-05T07:21:19;2.60;1.00
6662;DHT22;3367;48.714;8.994;2023-03-05T07:23:46;2.60;99.90
6662;DHT22;3367;48.714;8.994;2023-03-05T07:26:14;2.60;99.90
6662;DHT22;3367;48.714;8.994;2023-03-05T07:28:41;2.60;99.90
6662;DHT22;3367;48.714;8.994;2023-03-05T07:31:12;2.60;99.90
6662;DHT22;3367;48.714;8.994;2023-03-05T07:33:39;2.70;99.90
6662;DHT22;3367;48.714;8.994;2023-03-05T07:36:07;2.70;99.90
6662;DHT22;3367;48.714;8.994;2023-03-05T07:38:34;2.80;99.90
6662;DHT22;3367;48.714;8.994;2023-03-05T07:41:02;2.80;99.90
6662;DHT22;3367;48.714;8.994;2023-03-05T07:43:29;2.90;43.10
6662;DHT22;3367;48.714;8.994;2023-03-05T07:45:55;2.90;1.00
6662;DHT22;3367;48.714;8.994;2023-03-05T07:48:24;3.00;1.00
6662;DHT22;3367;48.714;8.994;2023-03-05T07:51:00;3.00;1.00
6662;DHT22;3367;48.714;8.994;2023-03-05T07:53:27;3.00;1.00
6662;DHT22;3367;48.714;8.994;2023-03-05T07:55:53;3.00;1.00
6662;DHT22;3367;48.714;8.994;2023-03-05T07:58:20;3.00;1.00
6662;DHT22;3367;48.714;8.994;2023-03-05T08:00:47;3.10;1.00
6662;DHT22;3367;48.714;8.994;2023-03-05T08:03:14;3.10;1.00
6662;DHT22;3367;48.714;8.994;2023-03-05T08:05:42;3.10;1.00
6662;DHT22;3367;48.714;8.994;2023-03-05T08:08:08;3.20;1.00
6662;DHT22;3367;48.714;8.994;2023-03-05T08:10:36;3.20;1.00
6662;DHT22;3367;48.714;8.994;2023-03-05T08:13:03;3.30;1.00
6662;DHT22;3367;48.714;8.994;2023-03-05T08:15:30;3.30;1.00
6662;DHT22;3367;48.714;8.994;2023-03-05T08:17:57;3.30;1.00
6662;DHT22;3367;48.714;8.994;2023-03-05T08:20:23;3.30;1.00
6662;DHT22;3367;48.714;8.994;2023-03-05T08:22:52;3.40;1.00
6662;DHT22;3367;48.714;8.994;2023-03-05T08:25:18;3.40;1.00
6662;DHT22;3367;48.714;8.994;2023-03-05T08:27:46;3.50;1.00
6662;DHT22;3367;48.714;8.994;2023-03-05T08:30:15;3.60;1.00
6662;DHT22;3367;48.714;8.994;2023-03-05T08:32:43;3.60;1.00
6662;DHT22;3367;48.714;8.994;2023-03-05T08:35:10;3.60;1.00
6662;DHT22;3367;48.714;8.994;2023-03-05T08:37:37;3.60;1.00
6662;DHT22;3367;48.714;8.994;2023-03-05T08:40:06;3.60;1.00
6662;DHT22;3367;48.714;8.994;2023-03-05T08:42:33;3.70;1.00
6662;DHT22;3367;48.714;8.994;2023-03-05T08:44:59;3.80;1.00
6662;DHT22;3367;48.714;8.994;2023-03-05T08:47:26;3.90;1.00
6662;DHT22;3367;48.714;8.994;2023-03-05T08:49:53;4.00;1.00
6662;DHT22;3367;48.714;8.994;2023-03-05T08:52:21;4.10;99.90
6662;DHT22;3367;48.714;8.994;2023-03-05T08:54:48;4.20;99.90
6662;DHT22;3367;48.714;8.994;2023-03-05T08:57:16;4.30;99.90
6662;DHT22;3367;48.714;8.994;2023-03-05T08:59:43;4.50;99.90
6662;DHT22;3367;48.714;8.994;2023-03-05T09:02:10;4.60;99.90
6662;DHT22;3367;48.714;8.994;2023-03-05T09:04:37;4.80;99.90
6662;DHT22;3367;48.714;8.994;2023-03-05T09:07:04;4.80;99.90
6662;DHT22;3367;48.714;8.994;2023-03-05T09:09:31;5.00;99.90
6662;DHT22;3367;48.714;8.994;2023-03-05T09:11:58;5.00;99.90
6662;DHT22;3367;48.714;8.994;2023-03-05T09:14:26;4.90;99.90
6662;DHT22;3367;48.714;8.994;2023-03-05T09:16:53;5.00;99.90
6662;DHT22;3367;48.714;8.994;2023-03-05T09:19:20;5.00;99.90
6662;DHT22;3367;48.714;8.994;2023-03-05T09:21:47;4.80;99.90
6662;DHT22;3367;48.714;8.994;2023-03-05T09:24:14;4.90;99.90
6662;DHT22;3367;48.714;8.994;2023-03-05T09:26:40;5.00;99.90
6662;DHT22;3367;48.714;8.994;2023-03-05T09:29:07;5.10;99.90
6662;DHT22;3367;48.714;8.994;2023-03-05T09:31:36;5.20;99.90
6662;DHT22;3367;48.714;8.994;2023-03-05T09:34:03;5.10;99.90
6662;DHT22;3367;48.714;8.994;2023-03-05T09:36:30;5.00;99.20
6662;DHT22;3367;48.714;8.994;2023-03-05T09:38:57;5.00;99.90
6662;DHT22;3367;48.714;8.994;2023-03-05T09:41:31;5.10;99.90
6662;DHT22;3367;48.714;8.994;2023-03-05T09:44:10;5.20;99.90
6662;DHT22;3367;48.714;8.994;2023-03-05T09:46:47;5.20;96.80
6662;DHT22;3367;48.714;8.994;2023-03-05T09:49:21;5.20;90.20
6662;DHT22;3367;48.714;8.994;2023-03-05T09:51:53;5.10;78.60
6662;DHT22;3367;48.714;8.994;2023-03-05T09:54:24;4.90;72.20
6662;DHT22;3367;48.714;8.994;2023-03-05T09:56:55;5.00;81.70
6662;DHT22;3367;48.714;8.994;2023-03-05T09:59:28;5.10;85.10
6662;DHT22;3367;48.714;8.994;2023-03-05T10:02:01;5.20;76.30
6662;DHT22;3367;48.714;8.994;2023-03-05T10:04:41;5.30;73.60
6662;DHT22;3367;48.714;8.994;2023-03-05T10:07:12;5.20;72.90
6662;DHT22;3367;48.714;8.994;2023-03-05T10:09:44;5.20;67.50
6662;DHT22;3367;48.714;8.994;2023-03-05T10:12:17;5.10;62.60
6662;DHT22;3367;48.714;8.994;2023-03-05T10:14:45;5.00;65.60
6662;DHT22;3367;48.714;8.994;2023-03-05T10:17:38;4.90;58.20
6662;DHT22;3367;48.714;8.994;2023-03-05T10:20:33;5.00;64.10
6662;DHT22;3367;48.714;8.994;2023-03-05T10:23:21;5.00;65.50
6662;DHT22;3367;48.714;8.994;2023-03-05T10:25:57;5.00;60.70
6662;DHT22;3367;48.714;8.994;2023-03-05T10:28:33;5.10;59.80
6662;DHT22;3367;48.714;8.994;2023-03-05T10:31:24;5.20;61.20
6662;DHT22;3367;48.714;8.994;2023-03-05T10:34:08;5.30;62.20
6662;DHT22;3367;48.714;8.994;2023-03-05T10:36:45;5.50;53.20
6662;DHT22;3367;48.714;8.994;2023-03-05T10:39:45;5.50;29.60
6662;DHT22;3367;48.714;8.994;2023-03-05T10:42:20;5.30;38.80
6662;DHT22;3367;48.714;8.994;2023-03-05T10:44:52;5.30;37.70
6662;DHT22;3367;48.714;8.994;2023-03-05T10:47:23;5.00;27.60
6662;DHT22;3367;48.714;8.994;2023-03-05T10:49:54;4.80;26.20
6662;DHT22;3367;48.714;8.994;2023-03-05T10:52:26;4.70;31.90
6662;DHT22;3367;48.714;8.994;2023-03-05T10:54:54;4.60;31.00
6662;DHT22;3367;48.714;8.994;2023-03-05T10:57:23;4.60;34.90
6662;DHT22;3367;48.714;8.994;2023-03-05T10:59:52;4.70;35.20
6662;DHT22;3367;48.714;8.994;2023-03-05T11:02:20;4.70;44.40
6662;DHT22;3367;48.714;8.994;2023-03-05T11:04:48;4.80;38.80
6662;DHT22;3367;48.714;8.994;2023-03-05T11:07:46;4.80;29.60
6662;DHT22;3367;48.714;8.994;2023-03-05T11:10:16;4.70;34.40
6662;DHT22;3367;48.714;8.994;2023-03-05T11:12:44;4.60;33.60
6662;DHT22;3367;48.714;8.994;2023-03-05T11:15:24;4.60;36.70
6662;DHT22;3367;48.714;8.994;2023-03-05T11:18:20;4.70;35.90
6662;DHT22;3367;48.714;8.994;2023-03-05T11:20:48;4.50;26.40
6662;DHT22;3367;48.714;8.994;2023-03-05T11:23:18;4.40;33.10
6662;DHT22;3367;48.714;8.994;2023-03-05T11:25:56;4.30;29.80
6662;DHT22;3367;48.714;8.994;2023-03-05T11:28:26;4.20;42.60
6662;DHT22;3367;48.714;8.994;2023-03-05T11:30:56;4.20;42.00
6662;DHT22;3367;48.714;8.994;2023-03-05T11:33:23;4.30;50.10
6662;DHT22;3367;48.714;8.994;2023-03-05T11:35:51;4.20;51.70
6662;DHT22;3367;48.714;8.994;2023-03-05T11:38:22;4.10;57.00
6662;DHT22;3367;48.714;8.994;2023-03-05T11:40:51;4.10;69.20
6662;DHT22;3367;48.714;8.994;2023-03-05T11:43:20;4.10;68.60
6662;DHT22;3367;48.714;8.994;2023-03-05T11:45:50;4.30;78.80
6662;DHT22;3367;48.714;8.994;2023-03-05T11:48:20;4.40;77.60
6662;DHT22;3367;48.714;8.994;2023-03-05T11:50:53;4.30;73.80
6662;DHT22;3367;48.714;8.994;2023-03-05T11:53:24;4.40;79.60
6662;DHT22;3367;48.714;8.994;2023-03-05T11:55:57;4.30;82.40
6662;DHT22;3367;48.714;8.994;2023-03-05T11:58:28;4.30;78.50
6662;DHT22;3367;48.714;8.994;2023-03-05T12:00:57;4.30;86.70
6662;DHT22;3367;48.714;8.994;2023-03-05T12:03:30;4.30;84.60
6662;DHT22;3367;48.714;8.994;2023-03-05T12:06:02;4.30;84.50
6662;DHT22;3367;48.714;8.994;2023-03-05T12:08:36;4.30;85.90
6662;DHT22;3367;48.714;8.994;2023-03-05T12:11:08;4.20;78.00
6662;DHT22;3367;48.714;8.994;2023-03-05T12:13:41;4.10;89.30
6662;DHT22;3367;48.714;8.994;2023-03-05T12:16:16;4.10;95.30
6662;DHT22;3367;48.714;8.994;2023-03-05T12:18:54;4.00;98.10
6662;DHT22;3367;48.714;8.994;2023-03-05T12:21:29;3.90;99.90
6662;DHT22;3367;48.714;8.994;2023-03-05T12:24:01;3.90;99.90
6662;DHT22;3367;48.714;8.994;2023-03-05T12:26:53;4.00;99.90
6662;DHT22;3367;48.714;8.994;2023-03-05T12:29:28;4.10;99.90
6662;DHT22;3367;48.714;8.994;2023-03-05T12:31:55;4.30;99.90
6662;DHT22;3367;48.714;8.994;2023-03-05T12:34:55;4.30;99.90
6662;DHT22;3367;48.714;8.994;2023-03-05T12:37:56;4.40;99.90
6662;DHT22;3367;48.714;8.994;2023-03-05T12:40:26;4.30;99.90
6662;DHT22;3367;48.714;8.994;2023-03-05T12:42:56;4.20;99.90
6662;DHT22;3367;48.714;8.994;2023-03-05T12:45:35;4.20;99.90
6662;DHT22;3367;48.714;8.994;2023-03-05T12:51:11;4.10;99.90
6662;DHT22;3367;48.714;8.994;2023-03-05T12:53:38;4.10;99.90
6662;DHT22;3367;48.714;8.994;2023-03-05T12:56:15;4.20;99.90
6662;DHT22;3367;48.714;8.994;2023-03-05T12:58:45;4.20;99.90
6662;DHT22;3367;48.714;8.994;2023-03-05T13:01:22;4.40;99.90
6662;DHT22;3367;48.714;8.994;2023-03-05T13:03:55;4.50;99.90
6662;DHT22;3367;48.714;8.994;2023-03-05T13:06:24;4.50;99.90
6662;DHT22;3367;48.714;8.994;2023-03-05T13:08:56;4.60;97.00
6662;DHT22;3367;48.714;8.994;2023-03-05T13:11:24;4.60;97.60
6662;DHT22;3367;48.714;8.994;2023-03-05T13:13:52;4.70;91.70
6662;DHT22;3367;48.714;8.994;2023-03-05T13:16:22;4.70;93.50
6662;DHT22;3367;48.714;8.994;2023-03-05T13:18:50;4.60;86.30
6662;DHT22;3367;48.714;8.994;2023-03-05T13:21:18;4.60;90.30
6662;DHT22;3367;48.714;8.994;2023-03-05T13:23:47;4.60;85.70
6662;DHT22;3367;48.714;8.994;2023-03-05T13:26:15;4.60;88.40
6662;DHT22;3367;48.714;8.994;2023-03-05T13:28:45;4.60;87.00
6662;DHT22;3367;48.714;8.994;2023-03-05T13:31:28;4.70;83.30
6662;DHT22;3367;48.714;8.994;2023-03-05T13:33:58;4.70;77.80
6662;DHT22;3367;48.714;8.994;2023-03-05T13:36:30;4.80;80.90
6662;DHT22;3367;48.714;8.994;2023-03-05T13:38:57;4.80;78.20
6662;DHT22;3367;48.714;8.994;2023-03-05T13:41:26;4.90;75.80
6662;DHT22;3367;48.714;8.994;2023-03-05T13:43:56;4.80;67.10
6662;DHT22;3367;48.714;8.994;2023-03-05T13:46:25;4.90;65.00
6662;DHT22;3367;48.714;8.994;2023-03-05T13:48:52;4.80;50.40
6662;DHT22;3367;48.714;8.994;2023-03-05T13:51:19;4.80;60.70
6662;DHT22;3367;48.714;8.994;2023-03-05T13:53:46;4.90;62.20
6662;DHT22;3367;48.714;8.994;2023-03-05T13:56:15;4.90;54.20
6662;DHT22;3367;48.714;8.994;2023-03-05T13:58:45;4.80;46.30
6662;DHT22;3367;48.714;8.994;2023-03-05T14:01:31;4.80;55.10
6662;DHT22;3367;48.714;8.994;2023-03-05T14:04:04;4.80;70.50
6662;DHT22;3367;48.714;8.994;2023-03-05T14:06:36;4.80;48.60
6662;DHT22;3367;48.714;8.994;2023-03-05T14:09:07;4.60;43.20
6662;DHT22;3367;48.714;8.994;2023-03-05T14:11:51;4.60;46.30
6662;DHT22;3367;48.714;8.994;2023-03-05T14:14:18;4.60;46.10
6662;DHT22;3367;48.714;8.994;2023-03-05T14:16:48;4.50;48.30
6662;DHT22;3367;48.714;8.994;2023-03-05T14:19:31;4.50;50.70
6662;DHT22;3367;48.714;8.994;2023-03-05T14:21:59;4.50;51.50
6662;DHT22;3367;48.714;8.994;2023-03-05T14:24:26;4.50;58.20
6662;DHT22;3367;48.714;8.994;2023-03-05T14:26:56;4.40;54.70
6662;DHT22;3367;48.714;8.994;2023-03-05T14:29:24;4.40;61.70
6662;DHT22;3367;48.714;8.994;2023-03-05T14:31:54;4.40;62.10
6662;DHT22;3367;48.714;8.994;2023-03-05T14:34:25;4.30;69.60
6662;DHT22;3367;48.714;8.994;2023-03-05T14:36:54;4.30;69.70
6662;DHT22;3367;48.714;8.994;2023-03-05T14:39:30;4.30;73.00
6662;DHT22;3367;48.714;8.994;2023-03-05T14:42:26;4.20;79.40
6662;DHT22;3367;48.714;8.994;2023-03-05T14:44:54;4.20;79.50
6662;DHT22;3367;48.714;8.994;2023-03-05T14:47:22;4.10;80.60
6662;DHT22;3367;48.714;8.994;2023-03-05T14:49:49;4.00;84.80
6662;DHT22;3367;48.714;8.994;2023-03-05T14:52:18;4.10;88.30
6662;DHT22;3367;48.714;8.994;2023-03-05T14:54:45;4.00;89.80
6662;DHT22;3367;48.714;8.994;2023-03-05T14:57:14;3.90;91.30
6662;DHT22;3367;48.714;8.994;2023-03-05T14:59:42;3.90;92.70
6662;DHT22;3367;48.714;8.994;2023-03-05T15:02:13;3.80;96.20
6662;DHT22;3367;48.714;8.994;2023-03-05T15:04:42;3.80;98.00
6662;DHT22;3367;48.714;8.994;2023-03-05T15:07:17;3.80;99.30
6662;DHT22;3367;48.714;8.994;2023-03-05T15:09:45;3.70;99.90
6662;DHT22;3367;48.714;8.994;2023-03-05T15:12:14;3.70;99.90
6662;DHT22;3367;48.714;8.994;2023-03-05T15:14:40;3.70;99.90
6662;DHT22;3367;48.714;8.994;2023-03-05T15:17:15;3.70;99.90
6662;DHT22;3367;48.714;8.994;2023-03-05T15:19:44;3.70;99.90
6662;DHT22;3367;48.714;8.994;2023-03-05T15:22:12;3.70;99.90
6662;DHT22;3367;48.714;8.994;2023-03-05T15:24:39;3.80;99.90
6662;DHT22;3367;48.714;8.994;2023-03-05T15:27:06;3.70;99.90
6662;DHT22;3367;48.714;8.994;2023-03-05T15:29:33;3.80;99.90
6662;DHT22;3367;48.714;8.994;2023-03-05T15:32:01;3.80;99.90
6662;DHT22;3367;48.714;8.994;2023-03-05T15:34:29;3.70;99.90
6662;DHT22;3367;48.714;8.994;2023-03-05T15:36:57;3.70;99.90
6662;DHT22;3367;48.714;8.994;2023-03-05T15:39:23;3.70;99.90
6662;DHT22;3367;48.714;8.994;2023-03-05T15:41:51;3.60;99.90
6662;DHT22;3367;48.714;8.994;2023-03-05T15:44:18;3.60;99.90
6662;DHT22;3367;48.714;8.994;2023-03-05T15:46:45;3.60;99.90
6662;DHT22;3367;48.714;8.994;2023-03-05T15:49:12;3.50;99.90
6662;DHT22;3367;48.714;8.994;2023-03-05T15:51:39;3.50;99.90
6662;DHT22;3367;48.714;8.994;2023-03-05T15:54:08;3.50;99.90
6662;DHT22;3367;48.714;8.994;2023-03-05T15:56:35;3.50;99.90
6662;DHT22;3367;48.714;8.994;2023-03-05T15:59:02;3.40;99.90
6662;DHT22;3367;48.714;8.994;2023-03-05T16:01:29;3.40;99.90
6662;DHT22;3367;48.714;8.994;2023-03-05T16:03:56;3.30;99.90
6662;DHT22;3367;48.714;8.994;2023-03-05T16:06:23;3.30;99.90
6662;DHT22;3367;48.714;8.994;2023-03-05T16:08:54;3.30;99.90
6662;DHT22;3367;48.714;8.994;2023-03-05T16:11:25;3.30;99.90
6662;DHT22;3367;48.714;8.994;2023-03-05T16:13:51;3.30;99.90
6662;DHT22;3367;48.714;8.994;2023-03-05T16:16:19;3.30;99.90
6662;DHT22;3367;48.714;8.994;2023-03-05T16:18:47;3.20;99.90
6662;DHT22;3367;48.714;8.994;2023-03-05T16:21:14;3.20;99.90
6662;DHT22;3367;48.714;8.994;2023-03-05T16:23:41;3.20;99.90
6662;DHT22;3367;48.714;8.994;2023-03-05T16:26:08;3.20;99.90
6662;DHT22;3367;48.714;8.994;2023-03-05T16:28:36;3.20;99.90
6662;DHT22;3367;48.714;8.994;2023-03-05T16:31:03;3.20;99.90
6662;DHT22;3367;48.714;8.994;2023-03-05T16:33:30;3.20;99.90
6662;DHT22;3367;48.714;8.994;2023-03-05T16:36:17;3.20;99.90
6662;DHT22;3367;48.714;8.994;2023-03-05T16:38:46;3.20;99.90
6662;DHT22;3367;48.714;8.994;2023-03-05T16:41:13;3.20;99.90
6662;DHT22;3367;48.714;8.994;2023-03-05T16:43:42;3.20;99.90
6662;DHT22;3367;48.714;8.994;2023-03-05T16:46:09;3.10;99.90